»·PEaware :: UAL1399 KRDD-KMFR

UAL1399 :: KRDD-KMFR

FLIGHT INFORMATION

Flight Status: Arrived
Operator:
United Airlines
More flights by this operator :: More flights under this callsign
Pilot: David C. (16084)
Aircraft: SAAB 340
(SF34)
More flights by this aircraft type
Origin: KRDD Redding Mun
United States
Destination: KMFR Rogue Valley Intl-Medford
United States
More flights between these airports :: More routes between these airports
Route: KREST3 SHATA V23 OED
File this flight plan on PilotEdge
Remarks:
Altitude:
(Current/Filed)
14,000ft
Speed:
(Current/Filed)
283kts
Departed: 01-Jul-18 11:39 AM
Arrived: 01-Jul-18 12:20 PM
Distance/Time
Traveled:
115nm/0:40
Distance/Time
To Go:
Arrived

Flight Plot

Page will automatically refresh every two minutes.

Flight plan parsing failed; only flown route is shown


Map Options




Map Legend


Flown Route
Filed Route
Departure Airport
Arrival Airport
Navaid (VOR, NDB)
Fix

Horizontal Profiles

Position Reports

Time Latitude Longitude Heading Altitude Ground
Speed
01-Jul-18 11:14 40.505388 -122.299031 314 508ft 0kts
01-Jul-18 11:15 40.505388 -122.299031 314 508ft 0kts
01-Jul-18 11:16 40.505388 -122.299031 314 508ft 0kts
01-Jul-18 11:17 40.505388 -122.299031 314 508ft 0kts
01-Jul-18 11:18 40.505388 -122.299031 314 508ft 0kts
01-Jul-18 11:19 40.505388 -122.299031 314 508ft 0kts
01-Jul-18 11:20 40.505388 -122.299031 314 508ft 0kts
01-Jul-18 11:21 40.505388 -122.299031 314 508ft 0kts
01-Jul-18 11:22 40.505388 -122.299031 314 508ft 0kts
01-Jul-18 11:23 40.505388 -122.299031 314 508ft 0kts
01-Jul-18 11:24 40.505388 -122.299031 314 508ft 0kts
01-Jul-18 11:25 40.505388 -122.299031 314 508ft 0kts
01-Jul-18 11:26 40.505388 -122.299031 314 508ft 0kts
01-Jul-18 11:27 40.505388 -122.299031 314 508ft 0kts
01-Jul-18 11:28 40.505388 -122.299031 314 508ft 0kts
01-Jul-18 11:29 40.505388 -122.299031 314 508ft 0kts
01-Jul-18 11:30 40.505388 -122.299031 314 508ft 0kts
01-Jul-18 11:31 40.505388 -122.299031 314 508ft 0kts
01-Jul-18 11:32 40.505389 -122.299031 314 508ft 0kts
01-Jul-18 11:33 40.505620 -122.298874 53 508ft 0kts
01-Jul-18 11:34 40.504107 -122.298216 173 508ft 15kts
01-Jul-18 11:34 40.501936 -122.295955 134 508ft 0kts
01-Jul-18 11:35 40.501937 -122.295955 134 508ft 0kts
01-Jul-18 11:36 40.501937 -122.295955 134 508ft 0kts
01-Jul-18 11:37 40.501937 -122.295955 134 508ft 0kts
01-Jul-18 11:39 40.501681 -122.295603 135 508ft 9kts
01-Jul-18 11:40 40.516583 -122.294890 357 816ft 132kts
01-Jul-18 11:40 40.550507 -122.284222 13 2373ft 178kts
01-Jul-18 11:41 40.600727 -122.264923 14 4383ft 192kts
01-Jul-18 11:42 40.651775 -122.247273 10 6560ft 189kts
01-Jul-18 11:43 40.703571 -122.233066 347 8164ft 194kts
01-Jul-18 11:44 40.707282 -122.294848 261 9683ft 201kts
01-Jul-18 11:45 40.696207 -122.367074 255 11086ft 205kts
01-Jul-18 11:46 40.671932 -122.435767 238 12347ft 210kts
01-Jul-18 11:47 40.668353 -122.494222 345 13793ft 192kts
01-Jul-18 11:48 40.726393 -122.498942 344 14008ft 233kts
01-Jul-18 11:49 40.791130 -122.525456 342 14001ft 252kts
01-Jul-18 11:50 40.858703 -122.554012 342 13999ft 258kts
01-Jul-18 11:51 40.927208 -122.583034 342 13998ft 260kts
01-Jul-18 11:52 40.995860 -122.612202 342 14031ft 259kts
01-Jul-18 11:53 41.063882 -122.641144 341 14130ft 254kts
01-Jul-18 11:54 41.128793 -122.668822 340 14226ft 251kts
01-Jul-18 11:55 41.194182 -122.696777 340 14230ft 252kts
01-Jul-18 11:56 41.260794 -122.725302 340 14230ft 252kts
01-Jul-18 11:57 41.327492 -122.753917 340 14229ft 252kts
01-Jul-18 11:58 41.394633 -122.782802 340 14059ft 258kts
01-Jul-18 11:59 41.463296 -122.807301 352 14013ft 256kts
01-Jul-18 12:00 41.533979 -122.814942 353 14008ft 255kts
01-Jul-18 12:01 41.604416 -122.822201 353 13999ft 254kts
01-Jul-18 12:02 41.673024 -122.829249 353 12448ft 243kts
01-Jul-18 12:03 41.735524 -122.835678 353 11996ft 210kts
01-Jul-18 12:04 41.793500 -122.841676 353 11998ft 208kts
01-Jul-18 12:05 41.849725 -122.847417 356 11999ft 191kts
01-Jul-18 12:06 41.890919 -122.804444 39 11996ft 187kts
01-Jul-18 12:07 41.927321 -122.755764 40 11992ft 187kts
01-Jul-18 12:08 41.964225 -122.705255 41 11136ft 184kts
01-Jul-18 12:09 42.000579 -122.655405 41 9940ft 189kts
01-Jul-18 12:10 42.041088 -122.611134 24 8740ft 187kts
01-Jul-18 12:11 42.090333 -122.595016 359 7718ft 184kts
01-Jul-18 12:12 42.138916 -122.609359 334 6823ft 179kts
01-Jul-18 12:13 42.177842 -122.650371 312 5928ft 179kts
01-Jul-18 12:14 42.211109 -122.700472 312 5034ft 180kts
01-Jul-18 12:15 42.240119 -122.755341 301 4018ft 179kts
01-Jul-18 12:16 42.269813 -122.807908 318 2932ft 168kts
01-Jul-18 12:17 42.305309 -122.836838 338 2523ft 134kts
01-Jul-18 12:18 42.340908 -122.855455 338 1849ft 140kts
01-Jul-18 12:19 42.374793 -122.873251 338 1338ft 67kts
01-Jul-18 12:20 42.379557 -122.877316 166 1338ft 20kts
01-Jul-18 12:21 42.372731 -122.873639 158 1338ft 30kts
01-Jul-18 12:22 42.368739 -122.873375 247 1338ft 0kts

Navigation Log

Ident Type
Flight plan parsing failed, navigation log unavailable